This is the latest recevied weather packets stored in our database for station/object K3MV-13. If no packets are shown the sender has not sent any weather packets the latest 10 day(s).
| Time | Temp. | Humidity | Pressure | Rain* | Wind** | Luminosity | Snow |
|---|---|---|---|---|---|---|---|
| 1777244336 | 11.11° C | 73% | 1020.1 hPa | 0 mm | - | 36 W/m² | - |
| 1777244034 | 11.11° C | 72% | 1020.1 hPa | 0 mm | - | 48 W/m² | - |
| 1777243731 | 11.11° C | 71% | 1020.1 hPa | 0 mm | - | 46 W/m² | - |
| 1777243428 | 11.11° C | 72% | 1019.7 hPa | 0 mm | - | 43 W/m² | - |
| 1777243124 | 11.67° C | 71% | 1019.9 hPa | 0 mm | - | 43 W/m² | - |
| 1777242820 | 11.67° C | 69% | 1019.7 hPa | 0 mm | - | 65 W/m² | - |
| 1777242517 | 12.22° C | 70% | 1019.7 hPa | 0 mm | - | 50 W/m² | - |
| 1777242213 | 12.22° C | 70% | 1019.7 hPa | 0 mm | - | 63 W/m² | - |
| 1777241912 | 12.78° C | 70% | 1019.3 hPa | 0 mm | - | 109 W/m² | - |
| 1777241608 | 12.78° C | 69% | 1019.7 hPa | 0 mm | - | 117 W/m² | - |
| 1777241306 | 12.78° C | 69% | 1019.4 hPa | 0 mm | - | 110 W/m² | - |
| 1777241003 | 13.33° C | 66% | 1019.4 hPa | 0 mm | - | 198 W/m² | - |
| 1777240700 | 12.78° C | 68% | 1019.4 hPa | 0 mm | - | 63 W/m² | - |
| 1777240398 | 13.33° C | 68% | 1019.5 hPa | 0 mm | - | 49 W/m² | - |
| 1777240095 | 13.33° C | 67% | 1019.4 hPa | 0 mm | - | 49 W/m² | - |
| 1777239794 | 13.89° C | 67% | 1019.3 hPa | 0 mm | - | 96 W/m² | - |
| 1777239489 | 13.33° C | 68% | 1019.2 hPa | 0 mm | - | 86 W/m² | - |
| 1777239186 | 13.89° C | 68% | 1019.1 hPa | 0 mm | - | 51 W/m² | - |
| 1777238883 | 13.89° C | 66% | 1019.3 hPa | 0 mm | - | 314 W/m² | - |
| 1777238580 | 15° C | 64% | 1019 hPa | 0 mm | - | 200 W/m² | - |
| 1777238276 | 15° C | 66% | 1019 hPa | 0 mm | - | 91 W/m² | - |
| 1777237974 | 14.44° C | 67% | 1019.1 hPa | 0 mm | - | 155 W/m² | - |
| 1777237670 | 14.44° C | 68% | 1019 hPa | 0 mm | - | 390 W/m² | - |
| 1777237368 | 13.89° C | 68% | 1019.1 hPa | 0 mm | - | 116 W/m² | - |
| 1777237065 | 13.33° C | 71% | 1019.1 hPa | 0 mm | - | 72 W/m² | - |
* Rain latest hour (hover to see other rain measurements)
** Current wind speed in m/s (hover to see current wind gust speed)